Pagrindinis puslapis
METAR-TAF:

METAR-TAF

Oro uostai :

San Paulas-Congonhas, San Paulas, Brazilija

platuma: 23-37S, ilguma: 046-39W, Aukštis: 803 m

Dabartinis oras

Ataskaita buvo paskelbta 37 minutes, ne 01:00 UTC
Vėjas 6 kt iš Pietryčių
Temperatūra 19°C
Drėgmė 88%
Slėgis 1021 hPa
Matomumas: 9000 m
Su prošvaistėmis ne aukštis 300 ft
Apsiniaukę ne aukštis 600 ft

METAR: SBSP 300100Z 14006KT 9000 BKN003 OVC006 19/17 Q1021

Laikas: 22:37 (01:37 UTC)

Prognozė

Ataskaita buvo paskelbta 9 valandos ir 18 minutes, ne 16:19 UTC
Prognozė galioja nuo 29 metu 18 UTC su 30 metu 06 UTC
Vėjas 8 kt iš Pietų/Pietryčių
Matomumas: 8000 m
Su prošvaistėmis ne aukštis 1500 ft
Tapsmas
nuo 29 metu 18 UTC su 29 metu 21 UTC
Su prošvaistėmis ne aukštis 1200 ft
Tikimybė 30%
nuo 29 metu 22 UTC su 30 metu 01 UTC
Su prošvaistėmis ne aukštis 800 ft
Tapsmas
nuo 30 metu 01 UTC su 30 metu 03 UTC
Vėjas 4 kt iš Rytų

TAF: SBSP 291619Z 2918/3006 15008KT 8000 BKN015 TX25/2918Z TN19/3005Z BECMG 2918/2921 BKN012 PROB30 2922/3001 BKN008 BECMG 3001/3003 09004KT RMK PGO

Orai ataskaitas ir orų prognozės (METAR, TAF).

turimą stotys yra geltonos ir raudonos taškus žemėlapyje.

Perkelti pele per norėdami pamatyti stoties vardą.

Tada spustelėkite, norėdami matyti oro stebėjimo ir prognozės.

Norėdami pakeisti žemėlapį: spustelėkite ant žalios mygtukų su juodo kryžiaus žemyn,; žalią mygtuką su brūkšneliu, jei norite nutolinti; arba žalių rodyklių gretimoms žemėlapius.


METAR-TAF: